Terminal Aerodrome Forecast
Issued by NWS Twin Cities, MN

Home | Current Version | Previous Version | Text Only | Print | Product List | Glossary On
Versions: 1 2 3 4 5 6 7 8 9 10 11 12 13 14 15 16 17 18 19 20 21
000
FTUS43 KMPX 270500
TAFSTC
TAF
KSTC 270520Z 2706/2806 34007KT P6SM SKC
     FM271600 VRB03KT P6SM SCT200
     FM272200 17005KT P6SM BKN150
     FM280300 15006KT P6SM OVC060=

USA.gov is the U.S. government's official web portal to all federal, state and local government web resources and services.